Madison, SD

7:09 AM CST on December 15, 2019 (GMT -0600)
Madison Municipal

Weather History for KMDS - October, 2019

Change the Weather History Date:

Friday, October 4, 2019

  Actual Average Record
Temperature  
Mean Temperature 44 °F -  
Max Temperature 50 °F 65 °F 84 °F (2011)
Min Temperature 39 °F 40 °F 26 °F (2014)
Degree Days  
Heating Degree Days 20    
Moisture  
Dew Point 43 °F    
Average Humidity 96    
Maximum Humidity 100    
Minimum Humidity 71    
Precipitation  
Precipitation 0.02 in - - ()
Sea Level Pressure  
Sea Level Pressure 30.25 in    
Wind  
Wind Speed 11 mph ()    
Max Wind Speed 21 mph    
Max Gust Speed 30 mph    
Visibility 9.9 miles    
Events Rain , Thunderstorm    
Averages and records for this station are not official NWS values.
T = Trace of Precipitation, MM = Missing Value Source: Averaged Metar Reports

Daily Weather History Graph

Daily Weather History Graph

Search for Another Location

Airport or City:

Astronomy

Oct. 04, 2019 Rise Set
Actual Time 7:29 AM CDT 7:04 PM CDT
Civil Twilight 7:00 AM CDT 7:32 PM CDT
Nautical Twilight 6:27 AM CDT 8:06 PM CDT
Astronomical Twilight 5:53 AM CDT 8:39 PM CDT
Moon 2:13 PM CDT (10/4) 11:22 PM CDT (10/4)
Length of Visible Light 12h 32m
Length of Day
11h 34m
Waxing Crescent, 40% of the Moon is Illuminated
Oct 4
Waxing Crescent
Oct 5
First Quarter
Oct 13
Full
Oct 21
Last Quarter
Oct 27
New

Hourly Weather History & Observations

Time (CDT) Temp. Windchill Dew Point Humidity Pressure Visibility Wind Dir Wind Speed Gust Speed Precip Events Conditions
12:00 AM 39.2 °F 34.2 °F 39.2 °F 100% 30.38 in 10.0 mi East 6.9 mph - N/A   Overcast
12:15 AM 39.2 °F 35.9 °F 39.2 °F 100% 30.38 in 10.0 mi ESE 4.6 mph - N/A   Overcast
12:35 AM 39.2 °F 35.0 °F 39.2 °F 100% 30.38 in 10.0 mi ESE 5.8 mph - N/A   Overcast
12:40 AM 39.2 °F 35.0 °F 39.2 °F 100% 30.38 in 10.0 mi ESE 5.8 mph - N/A   Overcast
12:55 AM 39.2 °F 35.0 °F 39.2 °F 100% 30.38 in 10.0 mi ESE 5.8 mph - N/A   Overcast
1:00 AM 39.2 °F 33.6 °F 39.2 °F 100% 30.38 in 10.0 mi East 8.1 mph - N/A   Overcast
1:15 AM 39.2 °F 33.6 °F 39.2 °F 100% 30.39 in 10.0 mi ESE 8.1 mph - N/A   Overcast
1:35 AM 39.2 °F 35.0 °F 39.2 °F 100% 30.39 in 10.0 mi ESE 5.8 mph - N/A   Overcast
1:40 AM 39.2 °F 33.6 °F 39.2 °F 100% 30.39 in 10.0 mi SE 8.1 mph - N/A   Overcast
1:55 AM 39.2 °F 34.2 °F 39.2 °F 100% 30.39 in 10.0 mi ESE 6.9 mph - N/A   Overcast
2:00 AM 39.2 °F 35.0 °F 39.2 °F 100% 30.39 in 10.0 mi ESE 5.8 mph - N/A   Overcast
2:15 AM 39.2 °F 34.2 °F 39.2 °F 100% 30.39 in 10.0 mi ESE 6.9 mph - N/A   Overcast
2:35 AM 39.2 °F 33.6 °F 39.2 °F 100% 30.39 in 10.0 mi ESE 8.1 mph - N/A   Overcast
2:40 AM 39.2 °F 33.6 °F 39.2 °F 100% 30.39 in 10.0 mi ESE 8.1 mph - N/A   Overcast
2:55 AM 39.2 °F 33.6 °F 39.2 °F 100% 30.39 in 10.0 mi ESE 8.1 mph - N/A   Overcast
3:00 AM 39.2 °F 34.2 °F 39.2 °F 100% 30.38 in 10.0 mi ESE 6.9 mph - N/A   Overcast
3:15 AM 39.2 °F 35.0 °F 39.2 °F 100% 30.38 in 10.0 mi ESE 5.8 mph - N/A   Overcast
3:35 AM 39.2 °F 33.6 °F 39.2 °F 100% 30.38 in 10.0 mi ESE 8.1 mph - N/A   Overcast
3:40 AM 39.2 °F 33.6 °F 39.2 °F 100% 30.38 in 10.0 mi ESE 8.1 mph - N/A   Overcast
3:55 AM 39.2 °F 33.6 °F 39.2 °F 100% 30.38 in 10.0 mi SE 8.1 mph - N/A   Overcast
4:00 AM 39.2 °F 33.0 °F 39.2 °F 100% 30.38 in 10.0 mi SE 9.2 mph - N/A   Overcast
4:15 AM 39.2 °F 33.0 °F 39.2 °F 100% 30.38 in 10.0 mi SE 9.2 mph 21.9 mph N/A   Overcast
4:35 AM 39.2 °F 33.6 °F 39.2 °F 100% 30.38 in 10.0 mi SE 8.1 mph - N/A   Overcast
4:55 AM 39.2 °F 33.0 °F 39.2 °F 100% 30.38 in 10.0 mi ESE 9.2 mph - N/A   Overcast
5:00 AM 39.2 °F 32.5 °F 39.2 °F 100% 30.38 in 10.0 mi East 10.4 mph - N/A   Overcast
5:15 AM 39.2 °F 32.5 °F 39.2 °F 100% 30.38 in 10.0 mi ESE 10.4 mph - N/A   Overcast
5:20 AM 39.2 °F 32.5 °F 39.2 °F 100% 30.38 in 10.0 mi ESE 10.4 mph - N/A   Overcast
5:35 AM 39.2 °F 33.0 °F 39.2 °F 100% 30.37 in 10.0 mi ESE 9.2 mph - N/A   Overcast
5:40 AM 39.2 °F 33.0 °F 39.2 °F 100% 30.37 in 10.0 mi ESE 9.2 mph - N/A   Overcast
5:55 AM 39.2 °F 32.5 °F 39.2 °F 100% 30.37 in 10.0 mi SE 10.4 mph - N/A   Overcast
6:15 AM 39.2 °F 31.6 °F 39.2 °F 100% 30.38 in 10.0 mi ESE 12.7 mph 16.1 mph N/A   Overcast
6:35 AM 39.2 °F 33.0 °F 39.2 °F 100% 30.38 in 10.0 mi ESE 9.2 mph - N/A   Overcast
6:40 AM 39.2 °F 32.5 °F 39.2 °F 100% 30.37 in 10.0 mi ESE 10.4 mph - N/A   Overcast
6:55 AM 39.2 °F 32.0 °F 39.2 °F 100% 30.38 in 10.0 mi SE 11.5 mph - N/A   Overcast
7:15 AM 39.2 °F 32.0 °F 39.2 °F 100% 30.38 in 10.0 mi SE 11.5 mph 16.1 mph N/A   Overcast
7:35 AM 39.2 °F 32.0 °F 39.2 °F 100% 30.37 in 10.0 mi SE 11.5 mph - N/A   Overcast
7:40 AM 39.2 °F 31.2 °F 39.2 °F 100% 30.37 in 10.0 mi SE 13.8 mph - N/A   Overcast
7:55 AM 39.2 °F 31.6 °F 39.2 °F 100% 30.37 in 10.0 mi SE 12.7 mph 16.1 mph N/A   Overcast
8:15 AM 39.2 °F 31.2 °F 39.2 °F 100% 30.37 in 10.0 mi SE 13.8 mph - N/A   Overcast
8:35 AM 39.2 °F 31.2 °F 39.2 °F 100% 30.36 in 10.0 mi SE 13.8 mph 18.4 mph N/A   Overcast
8:55 AM 39.2 °F 30.8 °F 39.2 °F 100% 30.36 in 10.0 mi SE 15.0 mph - N/A   Overcast
9:00 AM 39.2 °F 31.2 °F 39.2 °F 100% 30.36 in 10.0 mi SE 13.8 mph - N/A   Overcast
9:15 AM 39.2 °F 30.8 °F 39.2 °F 100% 30.36 in 10.0 mi SE 15.0 mph 19.6 mph N/A   Overcast
9:35 AM 41.0 °F 33.9 °F 41.0 °F 100% 30.35 in 10.0 mi SE 12.7 mph 19.6 mph N/A   Overcast
9:55 AM 41.0 °F 33.1 °F 41.0 °F 100% 30.35 in 10.0 mi SE 15.0 mph 19.6 mph N/A   Overcast
10:00 AM 41.0 °F 33.5 °F 41.0 °F 100% 30.35 in 10.0 mi SE 13.8 mph 19.6 mph N/A   Overcast
10:15 AM 41.0 °F 33.9 °F 41.0 °F 100% 30.35 in 10.0 mi SSE 12.7 mph - N/A   Overcast
10:35 AM 41.0 °F 34.3 °F 41.0 °F 100% 30.36 in 10.0 mi SSE 11.5 mph 18.4 mph N/A   Overcast
10:55 AM 41.0 °F 33.5 °F 41.0 °F 100% 30.35 in 10.0 mi SE 13.8 mph 20.7 mph N/A   Overcast
11:00 AM 41.0 °F 33.5 °F 41.0 °F 100% 30.35 in 10.0 mi SE 13.8 mph - N/A   Overcast
11:15 AM 41.0 °F 33.5 °F 41.0 °F 100% 30.35 in 10.0 mi SE 13.8 mph 20.7 mph N/A   Overcast
11:35 AM 41.0 °F 33.5 °F 41.0 °F 100% 30.34 in 10.0 mi SSE 13.8 mph 19.6 mph N/A   Overcast
11:40 AM 41.0 °F 33.5 °F 41.0 °F 100% 30.34 in 10.0 mi SSE 13.8 mph 20.7 mph N/A   Overcast
11:55 AM 41.0 °F 33.5 °F 41.0 °F 100% 30.33 in 10.0 mi SSE 13.8 mph 19.6 mph N/A   Overcast
12:00 PM 41.0 °F 32.5 °F 41.0 °F 100% 30.33 in 10.0 mi SE 17.3 mph - N/A   Overcast
12:15 PM 42.8 °F 35.4 °F 42.8 °F 100% 30.31 in 10.0 mi SE 15.0 mph - N/A   Overcast
12:20 PM 42.8 °F 35.8 °F 42.8 °F 100% 30.31 in 10.0 mi SE 13.8 mph 19.6 mph N/A   Overcast
12:35 PM 42.8 °F 35.4 °F 42.8 °F 100% 30.30 in 10.0 mi SSE 15.0 mph 21.9 mph N/A   Overcast
12:40 PM 42.8 °F 35.1 °F 42.8 °F 100% 30.30 in 10.0 mi SE 16.1 mph 21.9 mph N/A   Overcast
12:55 PM 44.6 °F 38.1 °F 42.8 °F 93% 30.30 in 10.0 mi SE 13.8 mph 23.0 mph N/A   Overcast
1:00 PM 44.6 °F 38.1 °F 42.8 °F 93% 30.30 in 10.0 mi SE 13.8 mph 23.0 mph N/A   Overcast
1:15 PM 44.6 °F 38.1 °F 42.8 °F 93% 30.29 in 10.0 mi SE 13.8 mph 19.6 mph N/A   Overcast
1:35 PM 46.4 °F 39.8 °F 42.8 °F 87% 30.26 in 10.0 mi SE 16.1 mph 21.9 mph N/A   Mostly Cloudy
1:40 PM 46.4 °F 39.5 °F 42.8 °F 87% 30.26 in 10.0 mi SSE 17.3 mph 20.7 mph N/A   Mostly Cloudy
1:55 PM 48.2 °F - 42.8 °F 82% 30.25 in 10.0 mi SSE 17.3 mph 24.2 mph N/A   Mostly Cloudy
2:00 PM 46.4 °F 39.8 °F 42.8 °F 87% 30.25 in 10.0 mi SSE 16.1 mph 24.2 mph N/A   Scattered Clouds
2:15 PM 48.2 °F - 42.8 °F 82% 30.24 in 10.0 mi SE 15.0 mph 23.0 mph N/A   Mostly Cloudy
2:20 PM 48.2 °F - 42.8 °F 82% 30.23 in 10.0 mi SSE 18.4 mph 23.0 mph N/A   Mostly Cloudy
2:35 PM 48.2 °F - 42.8 °F 82% 30.22 in 10.0 mi SE 16.1 mph 23.0 mph N/A   Mostly Cloudy
2:55 PM 50.0 °F - 42.8 °F 76% 30.20 in 10.0 mi SE 19.6 mph 23.0 mph N/A   Scattered Clouds
3:00 PM 50.0 °F - 42.8 °F 76% 30.20 in 10.0 mi SSE 17.3 mph 23.0 mph N/A   Scattered Clouds
3:15 PM 50.0 °F - 42.8 °F 76% 30.19 in 10.0 mi SSE 17.3 mph 24.2 mph N/A   Clear
3:20 PM 50.0 °F - 41.0 °F 71% 30.18 in 10.0 mi SE 16.1 mph 24.2 mph N/A   Clear
3:35 PM 50.0 °F - 42.8 °F 76% 30.17 in 10.0 mi SE 20.7 mph 26.5 mph N/A   Scattered Clouds
3:40 PM 50.0 °F - 42.8 °F 76% 30.17 in 10.0 mi SE 19.6 mph 26.5 mph N/A   Scattered Clouds
3:55 PM 50.0 °F - 42.8 °F 76% 30.15 in 10.0 mi SE 16.1 mph 24.2 mph N/A   Mostly Cloudy
4:15 PM 50.0 °F - 41.0 °F 71% 30.15 in 10.0 mi SE 20.7 mph 26.5 mph N/A   Overcast
4:35 PM 50.0 °F - 42.8 °F 76% 30.15 in 10.0 mi SE 12.7 mph - N/A   Overcast
4:40 PM 50.0 °F - 42.8 °F 76% 30.15 in 10.0 mi SE 18.4 mph 24.2 mph N/A   Overcast
4:55 PM 50.0 °F - 41.0 °F 71% 30.15 in 10.0 mi SE 17.3 mph 24.2 mph N/A   Overcast
5:00 PM 50.0 °F - 42.8 °F 76% 30.15 in 10.0 mi SE 17.3 mph 21.9 mph N/A   Overcast
5:15 PM 50.0 °F - 44.6 °F 82% 30.15 in 10.0 mi SE 16.1 mph 27.6 mph N/A   Overcast
5:20 PM 48.2 °F - 46.4 °F 93% 30.15 in 10.0 mi SE 13.8 mph 24.2 mph N/A   Overcast
5:35 PM 48.2 °F - 46.4 °F 93% 30.14 in 5.0 mi SE 12.7 mph - N/A   Overcast
5:55 PM 46.4 °F 40.4 °F 46.4 °F 100% 30.11 in 7.0 mi ESE 13.8 mph 18.4 mph N/A Rain Light Rain
6:15 PM 46.4 °F 41.1 °F 46.4 °F 100% 30.11 in 10.0 mi ESE 11.5 mph - N/A   Overcast
6:20 PM 46.4 °F 41.1 °F 46.4 °F 100% 30.11 in 10.0 mi SE 11.5 mph - N/A   Overcast
6:35 PM 48.2 °F - 48.2 °F 100% 30.10 in 10.0 mi SE 17.3 mph - N/A   Overcast
6:55 PM 48.2 °F - 48.2 °F 100% 30.08 in 10.0 mi ESE 13.8 mph 20.7 mph N/A   Overcast
7:00 PM 48.2 °F - 48.2 °F 100% 30.08 in 10.0 mi SE 13.8 mph 20.7 mph N/A   Overcast
7:15 PM 48.2 °F - 48.2 °F 100% 30.07 in 10.0 mi SE 15.0 mph 23.0 mph N/A   Overcast
7:20 PM 48.2 °F - 48.2 °F 100% 30.08 in 10.0 mi SE 16.1 mph 23.0 mph N/A   Overcast
7:35 PM 48.2 °F - 48.2 °F 100% 30.07 in 10.0 mi SE 16.1 mph 20.7 mph N/A   Overcast
7:40 PM 48.2 °F - 48.2 °F 100% 30.07 in 10.0 mi SE 15.0 mph 20.7 mph N/A   Overcast
7:55 PM 46.4 °F 41.1 °F 46.4 °F 100% 30.08 in 5.0 mi SE 11.5 mph 19.6 mph N/A   Overcast
8:15 PM 46.4 °F 39.8 °F 46.4 °F 100% 30.08 in 10.0 mi SE 16.1 mph 19.6 mph N/A   Overcast
8:20 PM 46.4 °F 39.5 °F 46.4 °F 100% 30.07 in 10.0 mi SE 17.3 mph 24.2 mph N/A   Overcast
8:35 PM 46.4 °F 39.2 °F 46.4 °F 100% 30.06 in 10.0 mi SE 18.4 mph 25.3 mph N/A   Overcast
8:40 PM 46.4 °F 39.2 °F 46.4 °F 100% 30.06 in 10.0 mi SE 18.4 mph 25.3 mph N/A   Overcast
8:55 PM 46.4 °F 39.8 °F 46.4 °F 100% 30.05 in 10.0 mi SE 16.1 mph 23.0 mph N/A   Overcast
9:00 PM 46.4 °F 40.1 °F 46.4 °F 100% 30.05 in 10.0 mi SE 15.0 mph 23.0 mph N/A   Overcast
9:15 PM 46.4 °F 40.1 °F 46.4 °F 100% 30.04 in 10.0 mi SE 15.0 mph 23.0 mph N/A   Overcast
9:35 PM 46.4 °F 39.5 °F 46.4 °F 100% 30.04 in 10.0 mi SE 17.3 mph 24.2 mph N/A   Overcast
9:55 PM 48.2 °F - 48.2 °F 100% 30.02 in 10.0 mi SE 17.3 mph 25.3 mph N/A   Overcast
10:00 PM 48.2 °F - 48.2 °F 100% 30.01 in 10.0 mi SE 16.1 mph 24.2 mph N/A   Overcast
10:15 PM 48.2 °F - 48.2 °F 100% 30.01 in 10.0 mi SE 17.3 mph 29.9 mph N/A   Overcast
10:20 PM 48.2 °F - 48.2 °F 100% 30.01 in 10.0 mi SE 18.4 mph 26.5 mph N/A   Overcast
10:35 PM 48.2 °F - 48.2 °F 100% 29.99 in 10.0 mi SE 18.4 mph 24.2 mph N/A Thunderstorm Overcast
10:55 PM 48.2 °F - 48.2 °F 100% 29.99 in 8.0 mi SE 16.1 mph 28.8 mph 0.01 in Rain Light Rain
11:00 PM 46.4 °F 39.5 °F 46.4 °F 100% 29.98 in 8.0 mi SE 17.3 mph 25.3 mph 0.01 in Rain , Thunderstorm Light Thunderstorms and Rain
11:15 PM 48.2 °F - 48.2 °F 100% 29.97 in 10.0 mi SE 18.4 mph 29.9 mph N/A Rain , Thunderstorm Light Rain
11:35 PM 48.2 °F - 48.2 °F 100% 29.96 in 10.0 mi SE 17.3 mph 28.8 mph N/A Rain , Thunderstorm Light Rain
11:40 PM 48.2 °F - 48.2 °F 100% 29.95 in 10.0 mi SSE 20.7 mph 28.8 mph N/A Thunderstorm Overcast
11:55 PM 48.2 °F - 48.2 °F 100% 29.94 in 10.0 mi SSE 17.3 mph 28.8 mph N/A   Overcast